Armington, Illinois
Current Conditions -  °F | °C
As of 8:35 PM on Friday 31 Oct 2014 (Local Time) from KAAA Reporting Station
Overcast Overcast  
Wind Chill: 31°   Ceiling: 5000
Heat Index: 38°   Visibility: 10mi
Dew Point: 21°   Wind: 13mph
Humidity: 50%   Direction: 360°N
Pressure: 30.37"   Gusts: 23mph
Location:  40.34°N, 89.31°W
Report Text: KAAA 010135Z AUTO 36011G20KT 10SM OVC050 04/M06 A3037 RMK AO2 T00361060
Loading
Personal Weather Stations






























Interactive Weather Map
Tropical Storm Tracking
New forecast layout! Learn more

10-Day Weather Forecast

Advertisements
Track Severe Weather on mobile